Brilliance Of The Seas — C6SJ5 — position and weather

sailwx.info

Track history (hours):
 
Tides and Currents Weather Stations Pressure Air Temp Water Temp Dewpoint Dewpoint Depression Visibility Wind Speed Wind Dir Waves Ship Positions

Brilliance Of The Seas

Operator: Royal Caribbean Cruises Ltd

Last reported at 2017-Jan-23 10:33 UTC. Time now 2017-Jan-23 10:41 UTC.
Position N 27°53' W 082°26'.

Type: Ship. MMSI: 311361000.

Date/timePositionNaut miles runAvg speedWind from/ knotsBaromVisibWave heightAir tempDewpointWater temp
2017-Jan-23 10:33N 27°53' W 082°26'1212.1
2017-Jan-23 09:34N 27°43' W 082°33'34315.9
2017-Jan-22 12:00N 22°42' W 085°36'6922.9 190 / 281002.0 5.4 27.024.327.0
2017-Jan-22 09:00N 21°42' W 086°12'7722.0 160 / 301009.0 5.4 26.023.227.0
2017-Jan-22 05:29N 20°37' W 086°56'8 8.7
2017-Jan-22 04:32N 20°29' W 086°59'0 0.0
2017-Jan-22 03:32N 20°29' W 086°59'0 0.0
2017-Jan-22 02:32N 20°29' W 086°59'0 0.0
2017-Jan-22 01:29N 20°29' W 086°59'0 0.0
2017-Jan-22 00:29N 20°29' W 086°59'0 0.0
2017-Jan-21 23:32N 20°29' W 086°59'0 0.0
2017-Jan-21 22:32N 20°29' W 086°59'0 0.0
2017-Jan-21 21:32N 20°29' W 086°59'0 0.0
2017-Jan-21 20:32N 20°29' W 086°59'0 0.0
2017-Jan-21 19:32N 20°29' W 086°59'0 0.0
2017-Jan-21 18:32N 20°29' W 086°59'8 7.9
2017-Jan-21 17:33N 20°36' W 086°57'15317.8
2017-Jan-21 09:00N 22°24' W 085°00'213 8.2 130 / 201006.0 5.4 25.023.627.0
2017-Jan-20 07:00N 25°30' W 083°06'13716.2 150 / 151010.0 5.4 23.021.624.0
2017-Jan-19 22:31N 27°44' W 082°32'1111.8
2017-Jan-19 21:33N 27°54' W 082°26'3 2.8
2017-Jan-19 20:33N 27°57' W 082°27'0 0.0
2017-Jan-19 19:33N 27°57' W 082°27'0 0.0
2017-Jan-19 18:33N 27°57' W 082°27'0 0.0
2017-Jan-19 17:33N 27°57' W 082°27'0 0.0
2017-Jan-19 16:33N 27°57' W 082°27'0 0.0
2017-Jan-19 15:33N 27°57' W 082°27'0 0.0
2017-Jan-19 14:33N 27°57' W 082°27'0 0.0
2017-Jan-19 13:33N 27°57' W 082°27'0 0.0
2017-Jan-19 12:33N 27°57' W 082°27'0 0.0
2017-Jan-19 11:31N 27°57' W 082°27'3 3.1
2017-Jan-19 10:33N 27°54' W 082°26'1211.9
2017-Jan-19 09:34N 27°43' W 082°32'1514.5
2017-Jan-19 08:34N 27°37' W 082°47'1913.1
2017-Jan-19 07:08N 27°32' W 083°08'26714.0
2017-Jan-18 12:00N 23°30' W 085°12'7414.8 110 / 201019.0 5.4 25.023.627.0
2017-Jan-18 07:00N 22°24' W 085°48'12516.3 120 / 241018.0 5.4 26.024.626.0
2017-Jan-17 23:22N 20°37' W 086°56'6 7.4
2017-Jan-17 22:32N 20°31' W 086°57'0 0.0
2017-Jan-17 21:32N 20°31' W 086°57'0 0.0
2017-Jan-17 20:32N 20°31' W 086°57'0 0.0
2017-Jan-17 19:32N 20°31' W 086°57'0 0.0
2017-Jan-17 18:32N 20°31' W 086°57'0 0.0
2017-Jan-17 17:32N 20°31' W 086°57'0 0.0
2017-Jan-17 16:29N 20°31' W 086°57'0 0.0
2017-Jan-17 15:29N 20°31' W 086°57'0 0.0
2017-Jan-17 14:29N 20°31' W 086°57'0 0.0
2017-Jan-17 13:32N 20°31' W 086°57'0 0.0
2017-Jan-17 12:27N 20°31' W 086°57'4 4.1
2017-Jan-17 11:34N 20°34' W 086°56'33314.1
2017-Jan-16 12:00N 25°18' W 083°48'10635.2 110 / 251018.0 5.4 24.022.627.0
2017-Jan-16 09:00N 23°36' W 083°18'4210.6 100 / 201017.0 5.4 25.023.627.0
2017-Jan-16 05:00N 23°54' W 082°36'106 4.8 090 / 181021.010.8 25.0 28.0
2017-Jan-15 07:00N 25°36' W 083°06'13117.3 080 / 201025.0 5.4 22.020.527.0
2017-Jan-14 23:24N 27°44' W 082°32'1012.2
2017-Jan-14 22:33N 27°53' W 082°26'4 4.0
2017-Jan-14 21:33N 27°57' W 082°27'0 0.0
2017-Jan-14 20:33N 27°57' W 082°27'0 0.0
2017-Jan-14 19:33N 27°57' W 082°27'0 0.0
2017-Jan-14 18:33N 27°57' W 082°27'0 0.0
2017-Jan-14 17:33N 27°57' W 082°27'0 0.0
2017-Jan-14 16:33N 27°57' W 082°27'0 0.0
2017-Jan-14 15:30N 27°57' W 082°27'0 0.0
2017-Jan-14 14:33N 27°57' W 082°27'0 0.0
2017-Jan-14 13:33N 27°57' W 082°27'0 0.0
2017-Jan-14 12:33N 27°57' W 082°27'0 0.0
2017-Jan-14 11:33N 27°57' W 082°27'3 2.6
2017-Jan-14 10:34N 27°54' W 082°26'1211.6
2017-Jan-14 09:33N 27°44' W 082°32'31314.5
2017-Jan-13 12:00N 23°12' W 085°24'   090 / 301025.0 2.2 25.022.228.0
Track history (hours):
 
Tides and Currents Weather Stations Pressure Air Temp Water Temp Dewpoint Dewpoint Depression Visibility Wind Speed Wind Dir Waves Ship Positions

Brilliance Of The Seas

Operator: Royal Caribbean Cruises Ltd

Last reported at 2017-Jan-23 10:33 UTC. Time now 2017-Jan-23 10:41 UTC.
Position N 27°53' W 082°26'.

Type: Ship. MMSI: 311361000.

Date/timePositionNaut miles runAvg speedWind from/ knotsBaromVisibWave heightAir tempDewpointWater temp
2017-Jan-23 10:33N 27°53' W 082°26'1212.1
2017-Jan-23 09:34N 27°43' W 082°33'34315.9
2017-Jan-22 12:00N 22°42' W 085°36'6922.9 190 / 281002.0 5.4 27.024.327.0
2017-Jan-22 09:00N 21°42' W 086°12'7722.0 160 / 301009.0 5.4 26.023.227.0
2017-Jan-22 05:29N 20°37' W 086°56'8 8.7
2017-Jan-22 04:32N 20°29' W 086°59'0 0.0
2017-Jan-22 03:32N 20°29' W 086°59'0 0.0
2017-Jan-22 02:32N 20°29' W 086°59'0 0.0
2017-Jan-22 01:29N 20°29' W 086°59'0 0.0
2017-Jan-22 00:29N 20°29' W 086°59'0 0.0
2017-Jan-21 23:32N 20°29' W 086°59'0 0.0
2017-Jan-21 22:32N 20°29' W 086°59'0 0.0
2017-Jan-21 21:32N 20°29' W 086°59'0 0.0
2017-Jan-21 20:32N 20°29' W 086°59'0 0.0
2017-Jan-21 19:32N 20°29' W 086°59'0 0.0
2017-Jan-21 18:32N 20°29' W 086°59'8 7.9
2017-Jan-21 17:33N 20°36' W 086°57'15317.8
2017-Jan-21 09:00N 22°24' W 085°00'213 8.2 130 / 201006.0 5.4 25.023.627.0
2017-Jan-20 07:00N 25°30' W 083°06'13716.2 150 / 151010.0 5.4 23.021.624.0
2017-Jan-19 22:31N 27°44' W 082°32'1111.8
2017-Jan-19 21:33N 27°54' W 082°26'3 2.8
2017-Jan-19 20:33N 27°57' W 082°27'0 0.0
2017-Jan-19 19:33N 27°57' W 082°27'0 0.0
2017-Jan-19 18:33N 27°57' W 082°27'0 0.0
2017-Jan-19 17:33N 27°57' W 082°27'0 0.0
2017-Jan-19 16:33N 27°57' W 082°27'0 0.0
2017-Jan-19 15:33N 27°57' W 082°27'0 0.0
2017-Jan-19 14:33N 27°57' W 082°27'0 0.0
2017-Jan-19 13:33N 27°57' W 082°27'0 0.0
2017-Jan-19 12:33N 27°57' W 082°27'0 0.0
2017-Jan-19 11:31N 27°57' W 082°27'3 3.1
2017-Jan-19 10:33N 27°54' W 082°26'1211.9
2017-Jan-19 09:34N 27°43' W 082°32'1514.5
2017-Jan-19 08:34N 27°37' W 082°47'1913.1
2017-Jan-19 07:08N 27°32' W 083°08'26714.0
2017-Jan-18 12:00N 23°30' W 085°12'7414.8 110 / 201019.0 5.4 25.023.627.0
2017-Jan-18 07:00N 22°24' W 085°48'12516.3 120 / 241018.0 5.4 26.024.626.0
2017-Jan-17 23:22N 20°37' W 086°56'6 7.4
2017-Jan-17 22:32N 20°31' W 086°57'0 0.0
2017-Jan-17 21:32N 20°31' W 086°57'0 0.0
2017-Jan-17 20:32N 20°31' W 086°57'0 0.0
2017-Jan-17 19:32N 20°31' W 086°57'0 0.0
2017-Jan-17 18:32N 20°31' W 086°57'0 0.0
2017-Jan-17 17:32N 20°31' W 086°57'0 0.0
2017-Jan-17 16:29N 20°31' W 086°57'0 0.0
2017-Jan-17 15:29N 20°31' W 086°57'0 0.0
2017-Jan-17 14:29N 20°31' W 086°57'0 0.0
2017-Jan-17 13:32N 20°31' W 086°57'0 0.0
2017-Jan-17 12:27N 20°31' W 086°57'4 4.1
2017-Jan-17 11:34N 20°34' W 086°56'33314.1
2017-Jan-16 12:00N 25°18' W 083°48'10635.2 110 / 251018.0 5.4 24.022.627.0
2017-Jan-16 09:00N 23°36' W 083°18'4210.6 100 / 201017.0 5.4 25.023.627.0
2017-Jan-16 05:00N 23°54' W 082°36'106 4.8 090 / 181021.010.8 25.0 28.0
2017-Jan-15 07:00N 25°36' W 083°06'13117.3 080 / 201025.0 5.4 22.020.527.0
2017-Jan-14 23:24N 27°44' W 082°32'1012.2
2017-Jan-14 22:33N 27°53' W 082°26'4 4.0
2017-Jan-14 21:33N 27°57' W 082°27'0 0.0
2017-Jan-14 20:33N 27°57' W 082°27'0 0.0
2017-Jan-14 19:33N 27°57' W 082°27'0 0.0
2017-Jan-14 18:33N 27°57' W 082°27'0 0.0
2017-Jan-14 17:33N 27°57' W 082°27'0 0.0
2017-Jan-14 16:33N 27°57' W 082°27'0 0.0
2017-Jan-14 15:30N 27°57' W 082°27'0 0.0
2017-Jan-14 14:33N 27°57' W 082°27'0 0.0
2017-Jan-14 13:33N 27°57' W 082°27'0 0.0
2017-Jan-14 12:33N 27°57' W 082°27'0 0.0
2017-Jan-14 11:33N 27°57' W 082°27'3 2.6
2017-Jan-14 10:34N 27°54' W 082°26'1211.6
2017-Jan-14 09:33N 27°44' W 082°32'31314.5
2017-Jan-13 12:00N 23°12' W 085°24'   090 / 301025.0 2.2 25.022.228.0

Dump ship's entire track history